createdAt,value
2017-08-19T00:02:15.830Z,23.34
2017-08-19T00:04:43.399Z,23.29
2017-08-19T00:07:11.940Z,23.30
2017-08-19T00:09:39.537Z,23.21
2017-08-19T00:12:07.145Z,23.31
2017-08-19T00:14:34.695Z,23.24
2017-08-19T00:17:02.729Z,23.15
2017-08-19T00:19:30.981Z,23.17
2017-08-19T00:21:58.536Z,23.25
2017-08-19T00:24:26.105Z,23.13
2017-08-19T00:26:53.869Z,22.91
2017-08-19T00:29:21.417Z,22.87
2017-08-19T00:31:49.002Z,22.95
2017-08-19T00:34:16.808Z,22.89
2017-08-19T00:36:44.381Z,22.91
2017-08-19T00:39:11.975Z,22.96
2017-08-19T00:41:39.617Z,22.82
2017-08-19T00:44:08.234Z,22.85
2017-08-19T00:46:35.964Z,22.87
2017-08-19T00:49:03.558Z,22.84
2017-08-19T00:51:31.847Z,22.79
2017-08-19T00:54:00.392Z,22.75
2017-08-19T00:56:28.208Z,22.67
2017-08-19T00:58:55.794Z,22.69
2017-08-19T01:01:23.440Z,22.61
2017-08-19T01:03:50.950Z,22.55
2017-08-19T01:06:18.512Z,22.51
2017-08-19T01:08:46.093Z,22.50
2017-08-19T01:11:13.620Z,22.40
2017-08-19T01:13:41.207Z,22.30
2017-08-19T01:16:08.783Z,22.40
2017-08-19T01:18:36.305Z,22.33
2017-08-19T01:21:03.869Z,22.29
2017-08-19T01:23:31.625Z,22.30
2017-08-19T01:26:11.078Z,22.33
2017-08-19T01:28:38.797Z,22.28
2017-08-19T01:31:06.645Z,22.25
2017-08-19T01:33:34.189Z,22.28
2017-08-19T01:36:01.763Z,22.29
2017-08-19T01:38:30.153Z,22.20
2017-08-19T01:40:57.699Z,22.16
2017-08-19T01:43:25.246Z,22.02
2017-08-19T01:45:52.814Z,22.13
2017-08-19T01:48:20.328Z,22.12
2017-08-19T01:50:48.079Z,22.12
2017-08-19T01:53:15.897Z,22.01
2017-08-19T01:55:43.420Z,22.07
2017-08-19T01:58:10.950Z,22.24
2017-08-19T02:00:38.565Z,22.18
2017-08-19T02:03:06.448Z,22.13
2017-08-19T02:05:34.319Z,21.82
2017-08-19T02:08:01.938Z,21.81
2017-08-19T02:10:29.458Z,21.92
2017-08-19T02:12:57.204Z,21.86
2017-08-19T02:15:24.762Z,21.50
2017-08-19T02:17:52.291Z,21.41
2017-08-19T02:20:19.806Z,21.28
2017-08-19T02:22:47.369Z,21.68
2017-08-19T02:25:14.908Z,21.78
2017-08-19T02:27:42.419Z,21.64
2017-08-19T02:30:10.092Z,21.68
2017-08-19T02:32:37.948Z,21.48
2017-08-19T02:35:05.847Z,21.08
2017-08-19T02:37:33.565Z,20.87
2017-08-19T02:40:01.892Z,20.73
2017-08-19T02:42:29.423Z,20.76
2017-08-19T02:44:57.117Z,20.78
2017-08-19T02:47:24.621Z,20.80
2017-08-19T02:49:52.138Z,20.92
2017-08-19T02:52:19.839Z,20.96
2017-08-19T02:54:47.360Z,20.88
2017-08-19T02:57:14.898Z,20.98
2017-08-19T02:59:42.609Z,21.04
2017-08-19T03:02:10.175Z,21.15
2017-08-19T03:04:37.703Z,21.13
2017-08-19T03:07:05.216Z,21.15
2017-08-19T03:09:32.769Z,21.09
2017-08-19T03:12:00.510Z,21.13
2017-08-19T03:14:28.042Z,21.23
2017-08-19T03:16:55.611Z,21.28
2017-08-19T03:19:23.135Z,21.38
2017-08-19T03:21:50.928Z,21.31
2017-08-19T03:24:18.631Z,21.20
2017-08-19T03:26:46.150Z,21.24
2017-08-19T03:29:13.687Z,21.12
2017-08-19T03:31:41.262Z,21.16
2017-08-19T03:34:08.775Z,21.12
2017-08-19T03:36:36.315Z,21.17
2017-08-19T03:39:04.133Z,21.24
2017-08-19T03:41:31.637Z,21.30
2017-08-19T03:43:59.382Z,21.14
2017-08-19T03:46:26.959Z,21.05
2017-08-19T03:48:54.757Z,20.94
2017-08-19T03:51:22.276Z,21.02
2017-08-19T03:53:49.821Z,20.95
2017-08-19T03:56:17.361Z,20.98
2017-08-19T03:58:45.229Z,20.98
2017-08-19T04:01:12.781Z,20.98
2017-08-19T04:03:40.337Z,20.95
2017-08-19T04:06:07.901Z,21.10
2017-08-19T04:08:35.478Z,21.17
2017-08-19T04:11:03.007Z,21.13
2017-08-19T04:13:30.775Z,21.06
2017-08-19T04:15:58.308Z,20.96
2017-08-19T04:18:26.120Z,21.06
2017-08-19T04:20:53.648Z,21.16
2017-08-19T04:23:21.243Z,21.20
2017-08-19T04:25:49.181Z,21.15
2017-08-19T04:28:16.693Z,21.13
2017-08-19T04:30:44.255Z,21.33
2017-08-19T04:33:11.765Z,21.28
2017-08-19T04:35:39.657Z,21.33
2017-08-19T04:38:07.250Z,21.43
2017-08-19T04:40:34.788Z,21.51
2017-08-19T04:43:02.337Z,21.53
2017-08-19T04:45:29.887Z,21.50
2017-08-19T04:47:57.405Z,21.55
2017-08-19T04:50:24.987Z,21.58
2017-08-19T04:52:52.542Z,21.67
2017-08-19T04:55:20.064Z,21.76
2017-08-19T04:57:47.589Z,21.97
2017-08-19T05:00:15.249Z,22.00
2017-08-19T05:02:42.798Z,22.33
2017-08-19T05:05:10.311Z,22.39
2017-08-19T05:07:37.867Z,22.58
2017-08-19T05:10:05.420Z,23.11
2017-08-19T05:12:32.971Z,22.85
2017-08-19T05:15:00.512Z,23.11
2017-08-19T05:17:28.033Z,23.49
2017-08-19T05:19:56.246Z,23.95
2017-08-19T05:22:23.784Z,24.20
2017-08-19T05:24:51.349Z,24.48
2017-08-19T05:27:18.865Z,24.80
2017-08-19T05:29:46.441Z,24.91
2017-08-19T05:32:13.988Z,25.07
2017-08-19T05:34:41.566Z,25.05
2017-08-19T05:37:09.096Z,24.96
2017-08-19T05:39:36.792Z,24.86
2017-08-19T05:42:04.307Z,25.25
2017-08-19T05:44:31.813Z,25.38
2017-08-19T05:46:59.367Z,25.85
2017-08-19T05:49:26.904Z,25.92
2017-08-19T05:51:54.469Z,26.25
2017-08-19T05:54:22.065Z,26.43
2017-08-19T05:56:49.599Z,26.58
2017-08-19T05:59:17.412Z,26.46
2017-08-19T06:01:44.988Z,26.64
2017-08-19T06:04:12.528Z,26.79
2017-08-19T06:06:40.110Z,26.99
2017-08-19T06:09:07.983Z,27.22
2017-08-19T06:11:35.635Z,27.48
2017-08-19T06:14:03.158Z,28.01
2017-08-19T06:16:30.772Z,28.27
2017-08-19T06:18:58.373Z,28.28
2017-08-19T06:21:25.894Z,27.99
2017-08-19T06:23:53.633Z,28.06
2017-08-19T06:26:21.174Z,28.45
2017-08-19T06:28:48.683Z,28.45
2017-08-19T06:31:16.260Z,27.48
2017-08-19T06:33:43.846Z,27.42
2017-08-19T06:36:11.477Z,27.90
2017-08-19T06:38:39.036Z,28.39
2017-08-19T06:41:29.314Z,28.65
2017-08-19T06:53:28.586Z,29.21
2017-08-19T06:55:56.339Z,29.59
2017-08-19T06:58:24.883Z,29.76
2017-08-19T07:00:52.572Z,29.47
2017-08-19T07:03:20.238Z,29.40
2017-08-19T07:05:48.022Z,30.08
2017-08-19T07:08:15.698Z,30.14
2017-08-19T07:10:43.328Z,30.20
2017-08-19T07:13:11.314Z,30.05
2017-08-19T07:15:38.915Z,29.79
2017-08-19T07:18:06.558Z,30.22
2017-08-19T07:20:35.087Z,30.48
2017-08-19T07:23:02.762Z,30.68
2017-08-19T07:25:30.425Z,30.68
2017-08-19T07:27:58.088Z,30.98
2017-08-19T07:30:26.046Z,31.11
2017-08-19T07:32:53.783Z,31.13
2017-08-19T07:35:21.426Z,31.02
2017-08-19T07:37:49.098Z,30.64
2017-08-19T07:40:16.729Z,31.38
2017-08-19T07:42:44.349Z,31.89
2017-08-19T07:45:12.048Z,31.99
2017-08-19T07:47:39.895Z,32.09
2017-08-19T07:50:07.558Z,31.47
2017-08-19T07:52:35.194Z,31.72
2017-08-19T07:55:02.830Z,31.87
2017-08-19T07:57:30.490Z,32.59
2017-08-19T07:59:59.205Z,32.35
2017-08-19T08:02:26.857Z,32.57
2017-08-19T08:04:54.499Z,32.16
2017-08-19T08:07:22.084Z,30.96
2017-08-19T08:09:50.276Z,30.53
2017-08-19T08:12:17.941Z,31.38
2017-08-19T08:14:45.600Z,31.98
2017-08-19T08:17:13.493Z,32.32
2017-08-19T08:19:41.156Z,31.45
2017-08-19T08:22:08.729Z,31.98
2017-08-19T08:24:36.403Z,32.04
2017-08-19T08:27:03.939Z,32.80
2017-08-19T08:29:31.627Z,33.17
2017-08-19T08:31:59.264Z,33.49
2017-08-19T08:34:26.871Z,33.37
2017-08-19T08:36:54.658Z,33.04
2017-08-19T08:39:22.292Z,33.58
2017-08-19T08:41:50.049Z,32.74
2017-08-19T08:44:17.635Z,31.87
2017-08-19T08:46:45.201Z,32.69
2017-08-19T08:49:12.802Z,33.14
2017-08-19T08:51:40.597Z,33.11
2017-08-19T08:54:08.209Z,33.79
2017-08-19T08:56:36.339Z,33.52
2017-08-19T08:59:04.085Z,33.18
2017-08-19T09:01:31.689Z,33.33
2017-08-19T09:03:59.620Z,33.15
2017-08-19T09:06:27.706Z,33.67
2017-08-19T09:08:55.499Z,33.48
2017-08-19T09:11:23.101Z,34.01
2017-08-19T09:13:50.869Z,33.97
2017-08-19T09:16:18.462Z,34.65
2017-08-19T09:18:46.089Z,35.20
2017-08-19T09:21:13.672Z,33.78
2017-08-19T09:23:41.525Z,34.37
2017-08-19T09:26:09.396Z,33.89
2017-08-19T09:28:37.190Z,33.59
2017-08-19T09:31:04.805Z,33.69
2017-08-19T09:33:32.601Z,33.81
2017-08-19T09:36:00.654Z,34.35
2017-08-19T09:38:28.370Z,34.11
2017-08-19T09:40:55.940Z,33.73
2017-08-19T09:43:23.498Z,33.94
2017-08-19T09:45:51.202Z,34.28
2017-08-19T09:48:18.792Z,33.92
2017-08-19T09:50:46.519Z,33.53
2017-08-19T09:53:14.110Z,33.41
2017-08-19T09:55:41.881Z,33.55
2017-08-19T09:58:10.240Z,33.01
2017-08-19T10:00:38.606Z,33.55
2017-08-19T10:03:06.241Z,34.24
2017-08-19T10:05:33.914Z,34.66
2017-08-19T10:08:02.230Z,33.39
2017-08-19T10:10:43.484Z,33.28
2017-08-19T10:13:11.939Z,33.46
2017-08-19T10:15:40.942Z,33.97
2017-08-19T10:18:08.574Z,33.99
2017-08-19T10:20:36.203Z,34.07
2017-08-19T10:23:04.104Z,34.00
2017-08-19T10:25:31.744Z,34.43
2017-08-19T10:28:00.484Z,33.92
2017-08-19T10:30:28.277Z,33.78
2017-08-19T10:32:55.872Z,34.15
2017-08-19T10:35:23.443Z,34.23
2017-08-19T10:37:51.063Z,33.46
2017-08-19T10:40:18.718Z,33.40
2017-08-19T10:42:46.323Z,32.52
2017-08-19T10:45:13.901Z,32.94
2017-08-19T10:47:41.506Z,32.52
2017-08-19T10:50:09.081Z,32.74
2017-08-19T10:52:36.691Z,32.72
2017-08-19T10:55:04.269Z,33.03
2017-08-19T10:57:31.881Z,33.15
2017-08-19T10:59:59.458Z,33.15
2017-08-19T11:02:27.054Z,33.19
2017-08-19T11:04:54.631Z,33.54
2017-08-19T11:07:22.199Z,34.12
2017-08-19T11:09:50.888Z,34.71
2017-08-19T11:12:19.989Z,34.56
2017-08-19T11:14:48.560Z,34.03
2017-08-19T11:17:17.161Z,33.48
2017-08-19T11:19:44.785Z,33.78
2017-08-19T11:22:12.614Z,34.24
2017-08-19T11:24:40.586Z,33.87
2017-08-19T11:27:09.306Z,34.17
2017-08-19T11:29:37.233Z,33.85
2017-08-19T11:32:04.893Z,34.00
2017-08-19T11:34:33.141Z,34.21
2017-08-19T11:37:00.837Z,34.31
2017-08-19T11:39:28.752Z,34.66
2017-08-19T11:41:56.557Z,34.33
2017-08-19T11:44:25.271Z,34.21
2017-08-19T11:46:53.138Z,34.25
2017-08-19T11:49:20.869Z,34.54
2017-08-19T11:51:48.795Z,34.62
2017-08-19T11:54:16.359Z,34.73
2017-08-19T11:56:44.074Z,34.95
2017-08-19T11:59:11.861Z,35.18
2017-08-19T12:01:39.909Z,35.38
2017-08-19T12:04:08.186Z,34.88
2017-08-19T12:06:39.948Z,34.58
2017-08-19T12:09:08.465Z,34.71
2017-08-19T12:11:36.471Z,34.72
2017-08-19T12:14:04.324Z,34.64
2017-08-19T12:16:32.038Z,34.95
2017-08-19T12:18:59.987Z,35.37
2017-08-19T12:21:28.078Z,35.45
2017-08-19T12:23:55.945Z,35.36
2017-08-19T12:26:23.634Z,35.14
2017-08-19T12:28:51.253Z,34.63
2017-08-19T12:31:18.832Z,34.13
2017-08-19T12:33:46.363Z,34.58
2017-08-19T12:36:13.906Z,34.37
2017-08-19T12:38:41.480Z,33.93
2017-08-19T12:41:09.016Z,34.09
2017-08-19T12:43:36.585Z,34.09
2017-08-19T12:46:04.189Z,33.76
2017-08-19T12:48:32.139Z,34.08
2017-08-19T12:50:59.681Z,34.16
2017-08-19T12:53:27.224Z,33.66
2017-08-19T12:55:54.731Z,33.25
2017-08-19T12:58:22.256Z,33.46
2017-08-19T13:00:50.146Z,33.70
2017-08-19T13:03:17.668Z,33.97
2017-08-19T13:05:45.379Z,33.89
2017-08-19T13:08:13.091Z,34.12
2017-08-19T13:10:40.688Z,34.44
2017-08-19T13:13:08.235Z,34.40
2017-08-19T13:15:35.951Z,34.46
2017-08-19T13:18:04.308Z,34.50
2017-08-19T13:20:31.994Z,34.39
2017-08-19T13:23:00.197Z,34.49
2017-08-19T13:25:28.781Z,34.62
2017-08-19T13:27:56.410Z,34.74
2017-08-19T13:30:24.194Z,34.61
2017-08-19T13:32:51.766Z,34.64
2017-08-19T13:35:19.711Z,34.48
2017-08-19T13:37:47.333Z,34.39
2017-08-19T13:40:15.525Z,34.30
2017-08-19T13:42:43.170Z,34.48
2017-08-19T13:45:10.785Z,34.41
2017-08-19T13:47:38.396Z,34.35
2017-08-19T13:50:06.424Z,34.51
2017-08-19T13:52:34.186Z,34.50
2017-08-19T13:55:01.881Z,34.21
2017-08-19T13:57:29.635Z,34.02
2017-08-19T13:59:57.496Z,33.69
2017-08-19T14:02:25.283Z,33.52
2017-08-19T14:04:52.854Z,33.44
2017-08-19T14:07:20.705Z,33.36
2017-08-19T14:09:48.255Z,33.51
2017-08-19T14:12:15.773Z,33.40
2017-08-19T14:14:43.821Z,33.36
2017-08-19T14:17:12.647Z,33.19
2017-08-19T14:19:41.170Z,33.37
2017-08-19T14:22:08.977Z,33.37
2017-08-19T14:24:36.585Z,33.48
2017-08-19T14:27:05.133Z,33.49
2017-08-19T14:29:33.585Z,33.57
2017-08-19T14:32:01.239Z,33.66
2017-08-19T14:34:29.217Z,33.57
2017-08-19T14:36:58.385Z,33.30
2017-08-19T14:39:26.017Z,33.27
2017-08-19T14:41:54.384Z,33.35
2017-08-19T14:44:22.388Z,33.37
2017-08-19T14:46:52.178Z,33.45
2017-08-19T14:49:20.220Z,33.35
2017-08-19T14:51:47.988Z,33.18
2017-08-19T14:54:15.905Z,33.23
2017-08-19T14:56:43.572Z,33.11
2017-08-19T14:59:11.168Z,32.99
2017-08-19T15:01:38.928Z,32.94
2017-08-19T15:04:07.826Z,32.86
2017-08-19T15:06:35.541Z,32.93
2017-08-19T15:09:04.581Z,32.83
2017-08-19T15:11:32.271Z,32.96
2017-08-19T15:13:59.996Z,32.95
2017-08-19T15:16:28.003Z,32.88
2017-08-19T15:18:55.628Z,32.82
2017-08-19T15:21:23.272Z,32.71
2017-08-19T15:23:50.938Z,32.65
2017-08-19T15:26:18.635Z,32.71
2017-08-19T15:39:36.660Z,32.24
2017-08-19T15:42:04.291Z,32.57
2017-08-19T15:44:33.620Z,32.36
2017-08-19T15:47:01.180Z,32.39
2017-08-19T15:49:28.775Z,32.40
2017-08-19T15:51:56.382Z,32.21
2017-08-19T15:54:23.919Z,31.94
2017-08-19T15:56:51.513Z,32.04
2017-08-19T15:59:20.202Z,32.07
2017-08-19T16:01:48.178Z,31.96
2017-08-19T16:04:16.880Z,31.88
2017-08-19T16:06:44.963Z,31.78
2017-08-19T16:09:12.570Z,31.80
2017-08-19T16:11:41.204Z,31.77
2017-08-19T16:14:08.985Z,31.74
2017-08-19T16:16:37.477Z,31.53
2017-08-19T16:19:05.570Z,31.54
2017-08-19T16:21:34.036Z,31.42
2017-08-19T16:24:02.987Z,31.37
2017-08-19T16:26:31.013Z,31.38
2017-08-19T16:28:59.428Z,31.44
2017-08-19T16:31:27.149Z,31.28
2017-08-19T16:33:54.844Z,31.24
2017-08-19T16:36:22.653Z,31.20
2017-08-19T16:38:50.353Z,31.09
2017-08-19T16:41:18.161Z,30.89
2017-08-19T16:43:46.709Z,30.84
2017-08-19T16:46:14.655Z,30.83
2017-08-19T16:48:42.248Z,30.74
2017-08-19T16:51:09.864Z,30.75
2017-08-19T16:53:37.471Z,30.65
2017-08-19T16:56:05.038Z,30.69
2017-08-19T16:58:32.737Z,30.61
2017-08-19T17:01:00.332Z,30.63
2017-08-19T17:03:27.915Z,30.48
2017-08-19T17:05:55.551Z,30.41
2017-08-19T17:08:23.486Z,30.41
2017-08-19T17:10:51.083Z,30.34
2017-08-19T17:13:18.662Z,30.28
2017-08-19T17:15:46.340Z,30.24
2017-08-19T17:18:14.038Z,30.17
2017-08-19T17:20:41.643Z,30.18
2017-08-19T17:23:09.408Z,30.08
2017-08-19T17:25:37.125Z,29.99
2017-08-19T17:28:04.790Z,29.92
2017-08-19T17:30:33.355Z,29.80
2017-08-19T17:33:01.047Z,29.85
2017-08-19T17:35:29.822Z,29.75
2017-08-19T17:37:57.658Z,29.62
2017-08-19T17:40:25.327Z,29.66
2017-08-19T17:42:52.940Z,29.55
2017-08-19T17:45:20.769Z,29.45
2017-08-19T17:47:49.215Z,29.38
2017-08-19T17:50:16.817Z,29.36
2017-08-19T17:52:44.538Z,29.26
2017-08-19T17:55:12.134Z,29.31
2017-08-19T17:57:39.716Z,29.27
2017-08-19T18:00:07.759Z,29.23
2017-08-19T18:02:35.454Z,29.14
2017-08-19T18:05:03.214Z,29.03
2017-08-19T18:07:30.865Z,28.93
2017-08-19T18:09:58.522Z,28.97
2017-08-19T18:12:26.108Z,28.82
2017-08-19T18:14:53.738Z,28.80
2017-08-19T18:17:21.505Z,28.74
2017-08-19T18:19:50.136Z,28.73
2017-08-19T18:22:17.766Z,28.87
2017-08-19T18:24:45.388Z,28.73
2017-08-19T18:27:12.994Z,28.63
2017-08-19T18:29:40.817Z,28.67
2017-08-19T18:32:08.434Z,28.60
2017-08-19T18:34:36.047Z,28.58
2017-08-19T18:37:03.645Z,28.60
2017-08-19T18:39:31.358Z,28.59
2017-08-19T18:41:59.496Z,28.55
2017-08-19T18:44:27.223Z,28.45
2017-08-19T18:46:55.349Z,28.54
2017-08-19T18:49:23.835Z,28.52
2017-08-19T18:51:51.757Z,28.41
2017-08-19T18:54:20.510Z,28.31
2017-08-19T18:56:48.316Z,28.12
2017-08-19T18:59:16.803Z,28.11
2017-08-19T19:01:44.525Z,28.12
2017-08-19T19:04:13.797Z,28.22
2017-08-19T19:06:42.149Z,28.09
2017-08-19T19:09:10.651Z,27.76
2017-08-19T19:11:38.360Z,27.75
2017-08-19T19:14:06.516Z,27.80
2017-08-19T19:16:34.363Z,27.61
2017-08-19T19:19:02.032Z,27.72
2017-08-19T19:21:30.509Z,27.58
2017-08-19T19:23:58.333Z,27.53
2017-08-19T19:26:26.051Z,27.43
2017-08-19T19:28:54.282Z,27.10
2017-08-19T19:31:21.993Z,27.15
2017-08-19T19:33:49.669Z,27.18
2017-08-19T19:36:17.280Z,26.88
2017-08-19T19:38:44.940Z,26.75
2017-08-19T19:41:12.536Z,26.71
2017-08-19T19:43:40.326Z,26.58
2017-08-19T19:46:08.452Z,26.59
2017-08-19T19:48:36.975Z,26.60
2017-08-19T19:51:04.753Z,26.45
2017-08-19T19:53:32.393Z,26.32
2017-08-19T19:56:00.247Z,26.31
2017-08-19T19:58:29.074Z,26.33
2017-08-19T20:00:56.675Z,26.26
2017-08-19T20:03:24.540Z,26.13
2017-08-19T20:05:52.110Z,26.03
2017-08-19T20:08:21.641Z,25.93
2017-08-19T20:10:49.270Z,25.90
2017-08-19T20:13:16.963Z,25.93
2017-08-19T20:15:45.473Z,25.81
2017-08-19T20:18:13.054Z,25.73
2017-08-19T20:20:40.685Z,25.63
2017-08-19T20:23:08.316Z,25.50
2017-08-19T20:25:36.790Z,25.35
2017-08-19T20:28:05.356Z,25.21
2017-08-19T20:30:34.865Z,25.12
2017-08-19T20:33:02.628Z,25.02
2017-08-19T20:35:31.228Z,25.08
2017-08-19T20:38:00.372Z,24.89
2017-08-19T20:40:29.325Z,24.85
2017-08-19T20:42:58.541Z,24.77
2017-08-19T20:45:27.585Z,24.79
2017-08-19T20:47:56.391Z,24.89
2017-08-19T20:50:24.843Z,24.73
2017-08-19T20:52:53.638Z,24.66
2017-08-19T20:55:21.771Z,24.65
2017-08-19T20:57:49.921Z,24.49
2017-08-19T21:00:17.978Z,24.43
2017-08-19T21:02:46.642Z,24.23
2017-08-19T21:05:14.718Z,24.30
2017-08-19T21:07:43.297Z,24.37
2017-08-19T21:10:11.974Z,24.34
2017-08-19T21:12:40.320Z,24.29
2017-08-19T21:15:08.727Z,24.18
2017-08-19T21:17:37.296Z,24.03
2017-08-19T21:20:04.921Z,23.87
2017-08-19T21:22:32.552Z,23.89
2017-08-19T21:25:00.373Z,23.79
2017-08-19T21:27:28.386Z,23.77
2017-08-19T21:29:56.715Z,23.75
2017-08-19T21:32:24.336Z,23.73
2017-08-19T21:34:51.930Z,23.72
2017-08-19T21:37:19.590Z,23.54
2017-08-19T21:39:47.248Z,23.36
2017-08-19T21:42:14.927Z,23.42
2017-08-19T21:44:42.677Z,23.39
2017-08-19T21:47:10.328Z,23.49
2017-08-19T21:49:37.933Z,23.35
2017-08-19T21:52:05.570Z,23.23
2017-08-19T21:54:33.232Z,23.23
2017-08-19T21:57:01.549Z,23.25
2017-08-19T21:59:30.215Z,23.17
2017-08-19T22:01:57.864Z,23.24
2017-08-19T22:04:26.334Z,23.32
2017-08-19T22:06:54.367Z,23.23
2017-08-19T22:09:22.013Z,23.19
2017-08-19T22:11:49.769Z,23.19
2017-08-19T22:14:17.549Z,23.09
2017-08-19T22:16:45.176Z,23.13
2017-08-19T22:19:13.606Z,23.02
2017-08-19T22:21:41.224Z,23.15
2017-08-19T22:24:09.745Z,23.20
2017-08-19T22:26:37.329Z,23.07
2017-08-19T22:29:04.947Z,23.07
2017-08-19T22:31:32.554Z,22.99
2017-08-19T22:34:00.301Z,23.01
2017-08-19T22:36:29.596Z,22.92
2017-08-19T22:38:59.013Z,22.86
2017-08-19T22:41:27.065Z,22.98
2017-08-19T22:43:55.706Z,22.90
2017-08-19T22:46:24.026Z,22.98
2017-08-19T22:48:52.421Z,23.07
2017-08-19T22:51:20.067Z,22.99
2017-08-19T22:53:48.743Z,22.87
2017-08-19T22:56:16.611Z,22.79
2017-08-19T22:58:45.041Z,22.59
2017-08-19T23:01:12.709Z,22.52
2017-08-19T23:03:40.297Z,22.36
2017-08-19T23:06:08.483Z,22.30
2017-08-19T23:08:36.785Z,22.41
2017-08-19T23:11:05.498Z,22.40
2017-08-19T23:13:34.296Z,22.40
2017-08-19T23:16:02.661Z,22.37
2017-08-19T23:18:31.033Z,22.38
2017-08-19T23:20:58.953Z,22.27
2017-08-19T23:23:28.026Z,22.27
2017-08-19T23:25:55.880Z,22.33
2017-08-19T23:28:23.483Z,22.36
2017-08-19T23:30:52.283Z,22.23
2017-08-19T23:33:20.242Z,22.34
2017-08-19T23:35:49.133Z,22.18
2017-08-19T23:38:17.334Z,22.13
2017-08-19T23:40:45.657Z,22.15
2017-08-19T23:43:14.266Z,22.22
2017-08-19T23:45:42.896Z,22.10
2017-08-19T23:48:11.088Z,22.15
2017-08-19T23:50:39.428Z,22.15
2017-08-19T23:53:07.228Z,22.02
2017-08-19T23:55:35.695Z,22.09
2017-08-19T23:58:04.893Z,22.10
